Airport View

Enter AWOS ICAO identifier for current METAR.

ex. KFNL

KDTW 242353Z 19006KT 10SM FEW050 FEW070 SCT200 27/19 A2992 RMK AO2 SLP129 CB DSNT SE MOV E 60000 T02670194 10306 20267 55003 $

25 May 2020 00:27

Frequency: 133.675

Phone: 734-955-5015

Other Area AWOS: KYIP - KARB - KONZ - KTTF

TAF KDTW 242328Z 2500/2606 21005KT P6SM SCT060 SCT250 TEMPO 2509/2513 4SM BR FM251400 16005KT P6SM BKN250 FM251700 20007KT P6SM BKN060 OVC150 PROB30 2519/2523 3SM TSRA OVC030CB